sensor_id;sensor_type;location;lat;lon;timestamp;P1;durP1;ratioP1;P2;durP2;ratioP2
56051;SDS011;41919;42.648;23.384;2022-12-24T00:00:54;6.20;;;4.20;;
56051;SDS011;41919;42.648;23.384;2022-12-24T00:03:20;8.23;;;4.47;;
56051;SDS011;41919;42.648;23.384;2022-12-24T00:05:46;10.30;;;5.32;;
56051;SDS011;41919;42.648;23.384;2022-12-24T00:08:11;7.88;;;4.50;;
56051;SDS011;41919;42.648;23.384;2022-12-24T00:10:36;7.53;;;4.05;;
56051;SDS011;41919;42.648;23.384;2022-12-24T00:13:02;6.20;;;3.80;;
56051;SDS011;41919;42.648;23.384;2022-12-24T00:15:27;7.07;;;3.13;;
56051;SDS011;41919;42.648;23.384;2022-12-24T00:17:53;6.35;;;3.42;;
56051;SDS011;41919;42.648;23.384;2022-12-24T00:20:18;6.82;;;4.00;;
56051;SDS011;41919;42.648;23.384;2022-12-24T00:22:43;7.32;;;3.58;;
56051;SDS011;41919;42.648;23.384;2022-12-24T00:25:09;6.45;;;3.33;;
56051;SDS011;41919;42.648;23.384;2022-12-24T00:27:34;8.43;;;4.00;;
56051;SDS011;41919;42.648;23.384;2022-12-24T00:30:00;10.13;;;5.05;;
56051;SDS011;41919;42.648;23.384;2022-12-24T00:32:25;8.75;;;3.80;;
56051;SDS011;41919;42.648;23.384;2022-12-24T00:34:51;6.60;;;4.07;;
56051;SDS011;41919;42.648;23.384;2022-12-24T00:37:16;7.60;;;4.40;;
56051;SDS011;41919;42.648;23.384;2022-12-24T00:39:41;9.23;;;3.67;;
56051;SDS011;41919;42.648;23.384;2022-12-24T00:42:07;11.88;;;4.25;;
56051;SDS011;41919;42.648;23.384;2022-12-24T00:44:32;8.30;;;4.47;;
56051;SDS011;41919;42.648;23.384;2022-12-24T00:46:58;7.07;;;4.40;;
56051;SDS011;41919;42.648;23.384;2022-12-24T00:49:23;9.43;;;5.03;;
56051;SDS011;41919;42.648;23.384;2022-12-24T00:51:48;9.40;;;4.63;;
56051;SDS011;41919;42.648;23.384;2022-12-24T00:54:14;9.40;;;4.80;;
56051;SDS011;41919;42.648;23.384;2022-12-24T00:56:40;9.35;;;5.07;;
56051;SDS011;41919;42.648;23.384;2022-12-24T00:59:05;7.28;;;4.57;;
56051;SDS011;41919;42.648;23.384;2022-12-24T01:01:30;12.93;;;4.63;;
56051;SDS011;41919;42.648;23.384;2022-12-24T01:03:56;8.52;;;4.50;;
56051;SDS011;41919;42.648;23.384;2022-12-24T01:06:41;9.18;;;5.03;;
56051;SDS011;41919;42.648;23.384;2022-12-24T01:09:07;8.80;;;4.38;;
56051;SDS011;41919;42.648;23.384;2022-12-24T01:11:33;13.75;;;5.45;;
56051;SDS011;41919;42.648;23.384;2022-12-24T01:13:58;10.68;;;5.15;;
56051;SDS011;41919;42.648;23.384;2022-12-24T01:16:24;8.95;;;4.75;;
56051;SDS011;41919;42.648;23.384;2022-12-24T01:18:49;8.98;;;4.88;;
56051;SDS011;41919;42.648;23.384;2022-12-24T01:21:15;9.30;;;4.93;;
56051;SDS011;41919;42.648;23.384;2022-12-24T01:23:40;10.95;;;5.47;;
56051;SDS011;41919;42.648;23.384;2022-12-24T01:26:06;8.07;;;4.93;;
56051;SDS011;41919;42.648;23.384;2022-12-24T01:28:32;9.68;;;5.63;;
56051;SDS011;41919;42.648;23.384;2022-12-24T01:30:57;9.10;;;5.80;;
56051;SDS011;41919;42.648;23.384;2022-12-24T01:33:23;11.13;;;5.55;;
56051;SDS011;41919;42.648;23.384;2022-12-24T01:35:52;9.48;;;4.97;;
56051;SDS011;41919;42.648;23.384;2022-12-24T01:38:18;8.75;;;4.47;;
56051;SDS011;41919;42.648;23.384;2022-12-24T01:40:43;9.55;;;5.07;;
56051;SDS011;41919;42.648;23.384;2022-12-24T01:43:28;8.85;;;4.82;;
56051;SDS011;41919;42.648;23.384;2022-12-24T01:51:07;9.43;;;5.43;;
56051;SDS011;41919;42.648;23.384;2022-12-24T01:53:42;10.20;;;5.32;;
56051;SDS011;41919;42.648;23.384;2022-12-24T01:56:12;10.60;;;4.97;;
56051;SDS011;41919;42.648;23.384;2022-12-24T01:58:39;8.65;;;4.80;;
56051;SDS011;41919;42.648;23.384;2022-12-24T02:01:10;10.80;;;5.38;;
56051;SDS011;41919;42.648;23.384;2022-12-24T02:03:36;9.35;;;4.95;;
56051;SDS011;41919;42.648;23.384;2022-12-24T02:06:01;10.35;;;5.30;;
56051;SDS011;41919;42.648;23.384;2022-12-24T02:08:28;10.20;;;5.00;;
56051;SDS011;41919;42.648;23.384;2022-12-24T02:11:24;10.95;;;6.45;;
56051;SDS011;41919;42.648;23.384;2022-12-24T02:13:50;9.02;;;5.43;;
56051;SDS011;41919;42.648;23.384;2022-12-24T02:21:51;12.30;;;6.07;;
56051;SDS011;41919;42.648;23.384;2022-12-24T02:27:06;11.15;;;5.90;;
56051;SDS011;41919;42.648;23.384;2022-12-24T02:32:42;15.15;;;7.18;;
56051;SDS011;41919;42.648;23.384;2022-12-24T02:35:16;12.75;;;6.40;;
56051;SDS011;41919;42.648;23.384;2022-12-24T02:37:53;19.70;;;8.10;;
56051;SDS011;41919;42.648;23.384;2022-12-24T02:40:27;17.33;;;8.52;;
56051;SDS011;41919;42.648;23.384;2022-12-24T02:42:59;16.25;;;8.60;;
56051;SDS011;41919;42.648;23.384;2022-12-24T02:45:29;16.40;;;8.00;;
56051;SDS011;41919;42.648;23.384;2022-12-24T02:47:56;16.60;;;9.60;;
56051;SDS011;41919;42.648;23.384;2022-12-24T02:50:23;18.42;;;9.07;;
56051;SDS011;41919;42.648;23.384;2022-12-24T02:52:49;17.88;;;9.23;;
56051;SDS011;41919;42.648;23.384;2022-12-24T02:55:16;19.60;;;9.82;;
56051;SDS011;41919;42.648;23.384;2022-12-24T03:00:23;14.40;;;7.45;;
56051;SDS011;41919;42.648;23.384;2022-12-24T03:08:05;12.80;;;6.80;;
56051;SDS011;41919;42.648;23.384;2022-12-24T03:10:45;12.55;;;6.90;;
56051;SDS011;41919;42.648;23.384;2022-12-24T03:13:20;15.90;;;7.57;;
56051;SDS011;41919;42.648;23.384;2022-12-24T03:15:47;17.45;;;8.18;;
56051;SDS011;41919;42.648;23.384;2022-12-24T03:18:15;14.13;;;7.63;;
56051;SDS011;41919;42.648;23.384;2022-12-24T03:20:45;11.85;;;6.72;;
56051;SDS011;41919;42.648;23.384;2022-12-24T03:23:18;12.07;;;6.65;;
56051;SDS011;41919;42.648;23.384;2022-12-24T03:25:44;15.43;;;7.30;;
56051;SDS011;41919;42.648;23.384;2022-12-24T03:28:11;12.27;;;5.90;;
56051;SDS011;41919;42.648;23.384;2022-12-24T03:30:39;9.23;;;5.25;;
56051;SDS011;41919;42.648;23.384;2022-12-24T03:33:06;13.32;;;5.22;;
56051;SDS011;41919;42.648;23.384;2022-12-24T03:35:32;10.30;;;4.80;;
56051;SDS011;41919;42.648;23.384;2022-12-24T03:37:57;12.27;;;5.55;;
56051;SDS011;41919;42.648;23.384;2022-12-24T03:40:23;11.43;;;5.75;;
56051;SDS011;41919;42.648;23.384;2022-12-24T03:42:48;10.05;;;5.57;;
56051;SDS011;41919;42.648;23.384;2022-12-24T03:45:13;12.68;;;5.55;;
56051;SDS011;41919;42.648;23.384;2022-12-24T03:47:39;12.82;;;5.70;;
56051;SDS011;41919;42.648;23.384;2022-12-24T03:50:05;14.35;;;6.00;;
56051;SDS011;41919;42.648;23.384;2022-12-24T03:52:31;8.07;;;4.88;;
56051;SDS011;41919;42.648;23.384;2022-12-24T03:54:56;10.00;;;5.05;;
56051;SDS011;41919;42.648;23.384;2022-12-24T03:57:22;7.35;;;3.70;;
56051;SDS011;41919;42.648;23.384;2022-12-24T03:59:47;8.85;;;4.63;;
56051;SDS011;41919;42.648;23.384;2022-12-24T04:02:13;7.03;;;4.43;;
56051;SDS011;41919;42.648;23.384;2022-12-24T04:04:38;8.50;;;4.25;;
56051;SDS011;41919;42.648;23.384;2022-12-24T04:07:04;7.68;;;3.85;;
56051;SDS011;41919;42.648;23.384;2022-12-24T04:09:30;7.53;;;4.00;;
56051;SDS011;41919;42.648;23.384;2022-12-24T04:11:56;7.75;;;3.78;;
56051;SDS011;41919;42.648;23.384;2022-12-24T04:14:21;7.75;;;4.10;;
56051;SDS011;41919;42.648;23.384;2022-12-24T04:16:47;6.68;;;3.90;;
56051;SDS011;41919;42.648;23.384;2022-12-24T04:19:12;7.10;;;3.97;;
56051;SDS011;41919;42.648;23.384;2022-12-24T04:21:38;9.13;;;4.50;;
56051;SDS011;41919;42.648;23.384;2022-12-24T04:24:03;9.63;;;4.85;;
56051;SDS011;41919;42.648;23.384;2022-12-24T04:26:29;10.88;;;4.65;;
56051;SDS011;41919;42.648;23.384;2022-12-24T04:28:55;8.52;;;4.43;;
56051;SDS011;41919;42.648;23.384;2022-12-24T04:31:20;8.65;;;3.90;;
56051;SDS011;41919;42.648;23.384;2022-12-24T04:33:45;7.13;;;4.30;;
56051;SDS011;41919;42.648;23.384;2022-12-24T04:36:12;7.38;;;4.00;;
56051;SDS011;41919;42.648;23.384;2022-12-24T04:38:44;9.82;;;4.72;;
56051;SDS011;41919;42.648;23.384;2022-12-24T04:41:20;9.32;;;4.53;;
56051;SDS011;41919;42.648;23.384;2022-12-24T04:43:47;9.38;;;5.35;;
56051;SDS011;41919;42.648;23.384;2022-12-24T04:46:14;10.38;;;5.07;;
56051;SDS011;41919;42.648;23.384;2022-12-24T04:48:42;8.68;;;5.03;;
56051;SDS011;41919;42.648;23.384;2022-12-24T04:51:08;9.55;;;4.88;;
56051;SDS011;41919;42.648;23.384;2022-12-24T04:53:34;12.38;;;5.65;;
56051;SDS011;41919;42.648;23.384;2022-12-24T04:56:01;12.18;;;6.00;;
56051;SDS011;41919;42.648;23.384;2022-12-24T04:58:27;14.07;;;6.53;;
56051;SDS011;41919;42.648;23.384;2022-12-24T05:00:53;13.25;;;7.20;;
56051;SDS011;41919;42.648;23.384;2022-12-24T05:03:18;12.05;;;7.43;;
56051;SDS011;41919;42.648;23.384;2022-12-24T05:05:44;15.95;;;7.18;;
56051;SDS011;41919;42.648;23.384;2022-12-24T05:08:10;16.80;;;7.40;;
56051;SDS011;41919;42.648;23.384;2022-12-24T05:10:35;15.80;;;7.47;;
56051;SDS011;41919;42.648;23.384;2022-12-24T05:13:01;15.02;;;7.88;;
56051;SDS011;41919;42.648;23.384;2022-12-24T05:15:27;13.15;;;6.70;;
56051;SDS011;41919;42.648;23.384;2022-12-24T05:17:53;12.98;;;6.93;;
56051;SDS011;41919;42.648;23.384;2022-12-24T05:20:18;11.30;;;5.57;;
56051;SDS011;41919;42.648;23.384;2022-12-24T05:22:44;11.10;;;5.55;;
56051;SDS011;41919;42.648;23.384;2022-12-24T05:25:30;8.50;;;4.72;;
56051;SDS011;41919;42.648;23.384;2022-12-24T05:28:16;9.23;;;4.78;;
56051;SDS011;41919;42.648;23.384;2022-12-24T05:30:42;11.68;;;5.13;;
56051;SDS011;41919;42.648;23.384;2022-12-24T05:33:08;11.57;;;5.85;;
56051;SDS011;41919;42.648;23.384;2022-12-24T05:35:33;12.07;;;5.30;;
56051;SDS011;41919;42.648;23.384;2022-12-24T05:37:59;12.05;;;4.93;;
56051;SDS011;41919;42.648;23.384;2022-12-24T05:40:24;11.27;;;5.00;;
56051;SDS011;41919;42.648;23.384;2022-12-24T05:42:50;10.10;;;5.38;;
56051;SDS011;41919;42.648;23.384;2022-12-24T05:45:15;9.88;;;5.57;;
56051;SDS011;41919;42.648;23.384;2022-12-24T05:47:41;9.98;;;5.22;;
56051;SDS011;41919;42.648;23.384;2022-12-24T05:50:06;8.88;;;4.85;;
56051;SDS011;41919;42.648;23.384;2022-12-24T05:52:32;9.00;;;4.97;;
56051;SDS011;41919;42.648;23.384;2022-12-24T05:54:58;7.07;;;4.15;;
56051;SDS011;41919;42.648;23.384;2022-12-24T05:57:23;6.47;;;3.80;;
56051;SDS011;41919;42.648;23.384;2022-12-24T05:59:49;8.48;;;3.70;;
56051;SDS011;41919;42.648;23.384;2022-12-24T06:02:14;7.07;;;3.50;;
56051;SDS011;41919;42.648;23.384;2022-12-24T06:04:40;7.22;;;3.80;;
56051;SDS011;41919;42.648;23.384;2022-12-24T06:07:05;6.85;;;3.20;;
56051;SDS011;41919;42.648;23.384;2022-12-24T06:09:31;7.10;;;4.30;;
56051;SDS011;41919;42.648;23.384;2022-12-24T06:11:56;7.95;;;4.25;;
56051;SDS011;41919;42.648;23.384;2022-12-24T06:14:22;7.22;;;4.07;;
56051;SDS011;41919;42.648;23.384;2022-12-24T06:16:47;8.73;;;4.22;;
56051;SDS011;41919;42.648;23.384;2022-12-24T06:19:12;7.65;;;4.57;;
56051;SDS011;41919;42.648;23.384;2022-12-24T06:21:38;9.57;;;4.72;;
56051;SDS011;41919;42.648;23.384;2022-12-24T06:24:03;9.02;;;4.68;;
56051;SDS011;41919;42.648;23.384;2022-12-24T06:26:29;9.65;;;4.40;;
56051;SDS011;41919;42.648;23.384;2022-12-24T06:28:55;8.18;;;4.60;;
56051;SDS011;41919;42.648;23.384;2022-12-24T06:31:31;6.85;;;4.10;;
56051;SDS011;41919;42.648;23.384;2022-12-24T06:33:57;25.55;;;12.00;;
56051;SDS011;41919;42.648;23.384;2022-12-24T06:36:23;31.48;;;15.98;;
56051;SDS011;41919;42.648;23.384;2022-12-24T06:38:50;36.08;;;15.60;;
56051;SDS011;41919;42.648;23.384;2022-12-24T06:41:18;35.00;;;17.20;;
56051;SDS011;41919;42.648;23.384;2022-12-24T06:43:44;36.00;;;17.42;;
56051;SDS011;41919;42.648;23.384;2022-12-24T06:46:11;39.95;;;19.13;;
56051;SDS011;41919;42.648;23.384;2022-12-24T06:48:37;35.83;;;16.67;;
56051;SDS011;41919;42.648;23.384;2022-12-24T06:51:02;35.13;;;16.88;;
56051;SDS011;41919;42.648;23.384;2022-12-24T06:53:29;30.42;;;16.08;;
56051;SDS011;41919;42.648;23.384;2022-12-24T06:56:02;26.38;;;14.43;;
56051;SDS011;41919;42.648;23.384;2022-12-24T06:58:29;32.38;;;15.55;;
56051;SDS011;41919;42.648;23.384;2022-12-24T07:00:54;34.83;;;17.02;;
56051;SDS011;41919;42.648;23.384;2022-12-24T07:03:20;38.15;;;15.90;;
56051;SDS011;41919;42.648;23.384;2022-12-24T07:05:46;27.48;;;14.98;;
56051;SDS011;41919;42.648;23.384;2022-12-24T07:08:11;26.33;;;14.43;;
56051;SDS011;41919;42.648;23.384;2022-12-24T07:10:36;27.98;;;14.70;;
56051;SDS011;41919;42.648;23.384;2022-12-24T07:13:02;24.05;;;13.38;;
56051;SDS011;41919;42.648;23.384;2022-12-24T07:15:27;19.25;;;13.25;;
56051;SDS011;41919;42.648;23.384;2022-12-24T07:17:53;24.95;;;14.68;;
56051;SDS011;41919;42.648;23.384;2022-12-24T07:20:18;21.00;;;12.25;;
56051;SDS011;41919;42.648;23.384;2022-12-24T07:22:43;19.92;;;11.85;;
56051;SDS011;41919;42.648;23.384;2022-12-24T07:25:09;17.63;;;10.90;;
56051;SDS011;41919;42.648;23.384;2022-12-24T07:27:35;25.85;;;14.40;;
56051;SDS011;41919;42.648;23.384;2022-12-24T07:30:01;21.63;;;12.55;;
56051;SDS011;41919;42.648;23.384;2022-12-24T07:32:26;19.15;;;12.88;;
56051;SDS011;41919;42.648;23.384;2022-12-24T07:34:52;25.60;;;12.95;;
56051;SDS011;41919;42.648;23.384;2022-12-24T07:37:17;18.90;;;11.48;;
56051;SDS011;41919;42.648;23.384;2022-12-24T07:39:43;20.75;;;11.75;;
56051;SDS011;41919;42.648;23.384;2022-12-24T07:42:09;19.92;;;11.05;;
56051;SDS011;41919;42.648;23.384;2022-12-24T07:44:34;18.15;;;11.07;;
56051;SDS011;41919;42.648;23.384;2022-12-24T07:47:00;18.85;;;10.50;;
56051;SDS011;41919;42.648;23.384;2022-12-24T07:49:25;19.85;;;10.18;;
56051;SDS011;41919;42.648;23.384;2022-12-24T07:51:51;17.90;;;9.50;;
56051;SDS011;41919;42.648;23.384;2022-12-24T07:54:16;15.35;;;8.52;;
56051;SDS011;41919;42.648;23.384;2022-12-24T07:56:41;13.82;;;8.45;;
56051;SDS011;41919;42.648;23.384;2022-12-24T07:59:07;14.02;;;7.65;;
56051;SDS011;41919;42.648;23.384;2022-12-24T08:01:36;14.70;;;8.02;;
56051;SDS011;41919;42.648;23.384;2022-12-24T08:04:01;14.35;;;7.75;;
56051;SDS011;41919;42.648;23.384;2022-12-24T08:06:26;9.68;;;7.05;;
56051;SDS011;41919;42.648;23.384;2022-12-24T08:08:52;11.43;;;7.65;;
56051;SDS011;41919;42.648;23.384;2022-12-24T08:11:17;12.88;;;7.47;;
56051;SDS011;41919;42.648;23.384;2022-12-24T08:13:43;11.82;;;7.35;;
56051;SDS011;41919;42.648;23.384;2022-12-24T08:16:08;15.13;;;9.13;;
56051;SDS011;41919;42.648;23.384;2022-12-24T08:18:34;15.13;;;8.98;;
56051;SDS011;41919;42.648;23.384;2022-12-24T08:20:59;14.27;;;9.82;;
56051;SDS011;41919;42.648;23.384;2022-12-24T08:23:25;16.58;;;9.90;;
56051;SDS011;41919;42.648;23.384;2022-12-24T08:25:50;19.20;;;9.25;;
56051;SDS011;41919;42.648;23.384;2022-12-24T08:28:17;14.80;;;9.77;;
56051;SDS011;41919;42.648;23.384;2022-12-24T08:30:43;23.60;;;12.32;;
56051;SDS011;41919;42.648;23.384;2022-12-24T08:33:09;23.35;;;13.60;;
56051;SDS011;41919;42.648;23.384;2022-12-24T08:35:35;20.90;;;13.20;;
56051;SDS011;41919;42.648;23.384;2022-12-24T08:38:00;24.27;;;14.18;;
56051;SDS011;41919;42.648;23.384;2022-12-24T08:40:26;28.33;;;13.90;;
56051;SDS011;41919;42.648;23.384;2022-12-24T08:42:51;22.05;;;12.77;;
56051;SDS011;41919;42.648;23.384;2022-12-24T08:45:17;25.52;;;13.75;;
56051;SDS011;41919;42.648;23.384;2022-12-24T08:47:42;24.38;;;14.13;;
56051;SDS011;41919;42.648;23.384;2022-12-24T08:50:08;22.02;;;13.35;;
56051;SDS011;41919;42.648;23.384;2022-12-24T08:52:34;26.08;;;14.25;;
56051;SDS011;41919;42.648;23.384;2022-12-24T08:55:00;24.88;;;15.05;;
56051;SDS011;41919;42.648;23.384;2022-12-24T08:57:25;27.50;;;15.13;;
56051;SDS011;41919;42.648;23.384;2022-12-24T08:59:51;37.67;;;16.73;;
56051;SDS011;41919;42.648;23.384;2022-12-24T09:02:16;36.47;;;17.50;;
56051;SDS011;41919;42.648;23.384;2022-12-24T09:04:42;33.92;;;18.65;;
56051;SDS011;41919;42.648;23.384;2022-12-24T09:07:07;27.33;;;16.00;;
56051;SDS011;41919;42.648;23.384;2022-12-24T09:09:34;31.65;;;16.90;;
56051;SDS011;41919;42.648;23.384;2022-12-24T09:11:59;29.67;;;15.93;;
56051;SDS011;41919;42.648;23.384;2022-12-24T09:14:25;37.05;;;16.25;;
56051;SDS011;41919;42.648;23.384;2022-12-24T09:16:50;26.98;;;14.05;;
56051;SDS011;41919;42.648;23.384;2022-12-24T09:19:16;30.33;;;14.95;;
56051;SDS011;41919;42.648;23.384;2022-12-24T09:21:41;29.92;;;14.80;;
56051;SDS011;41919;42.648;23.384;2022-12-24T09:24:07;24.25;;;12.52;;
56051;SDS011;41919;42.648;23.384;2022-12-24T09:26:33;25.80;;;13.07;;
